Time;durP1;ratioP1;P1;durP2;ratioP2;P2;SDS_P1;SDS_P2;PMS_P1;PMS_P2;Temp;Humidity;BMP_temperature;BMP_pressure;BME280_temperature;BME280_humidity;BME280_pressure;Samples;Min_cycle;Max_cycle;Signal;HPM_P1;HPM_P2
2023/05/31 00:02:18;;;;;;;;;6.75;4.00;;;;;12.27;62.79;100779.53;5119936;28;8820;-60
2023/05/31 00:04:46;;;;;;;;;7.50;6.50;;;;;12.22;62.26;100787.00;5120370;28;8840;-62
2023/05/31 00:07:14;;;;;;;;;7.50;7.00;;;;;12.20;62.22;100789.81;5120337;28;8842;-60
2023/05/31 00:09:42;;;;;;;;;10.50;9.00;;;;;12.18;63.09;100789.06;5119937;28;8874;-60
2023/05/31 00:12:10;;;;;;;;;7.00;6.25;;;;;12.16;62.74;100782.97;5120542;28;9595;-61
2023/05/31 00:14:37;;;;;;;;;9.00;9.00;;;;;12.14;62.51;100784.03;5119267;28;8822;-61
2023/05/31 00:17:05;;;;;;;;;6.75;6.25;;;;;12.13;62.54;100782.34;5119763;28;8833;-61
2023/05/31 00:19:53;;;;;;;;;6.75;6.50;;;;;12.08;62.73;100777.34;5119279;28;8838;-59
2023/05/31 00:22:21;;;;;;;;;8.50;7.50;;;;;12.06;62.61;100778.41;5120078;28;8852;-61
2023/05/31 00:24:48;;;;;;;;;7.50;6.75;;;;;12.02;62.56;100775.09;5119883;28;8810;-59
2023/05/31 00:27:18;;;;;;;;;9.50;9.00;;;;;12.00;62.72;100774.38;5119799;28;8814;-59
2023/05/31 00:29:46;;;;;;;;;6.25;6.00;;;;;11.98;62.80;100787.94;5118813;28;9481;-61
2023/05/31 00:32:13;;;;;;;;;9.50;7.00;;;;;11.94;62.78;100780.13;5119465;28;8989;-59
2023/05/31 00:34:41;;;;;;;;;7.75;5.00;;;;;11.92;63.12;100783.03;5119244;28;8840;-60
2023/05/31 00:37:08;;;;;;;;;9.25;7.50;;;;;11.91;62.84;100790.19;5119693;28;8946;-60
2023/05/31 00:39:36;;;;;;;;;7.50;7.00;;;;;11.90;62.64;100782.31;5120179;28;8828;-60
2023/05/31 00:42:04;;;;;;;;;9.25;7.50;;;;;11.88;62.81;100781.53;5118860;28;8836;-58
2023/05/31 00:44:32;;;;;;;;;6.50;6.50;;;;;11.87;63.25;100780.69;5118632;28;8851;-59
2023/05/31 00:47:00;;;;;;;;;8.00;6.75;;;;;11.87;62.89;100779.84;5118307;28;8828;-59
2023/05/31 00:49:28;;;;;;;;;9.50;7.50;;;;;11.84;62.62;100783.56;5118921;28;8938;-59
2023/05/31 00:51:56;;;;;;;;;9.00;7.50;;;;;11.84;62.56;100772.91;5119378;28;8904;-59
2023/05/31 00:54:24;;;;;;;;;12.75;10.00;;;;;11.85;62.61;100784.44;5119157;28;8942;-60
2023/05/31 00:56:52;;;;;;;;;10.00;9.00;;;;;11.83;62.73;100784.53;5119336;28;8827;-60
2023/05/31 00:59:19;;;;;;;;;9.00;7.00;;;;;11.83;62.64;100789.03;5118666;28;8906;-58
2023/05/31 01:01:47;;;;;;;;;6.75;6.50;;;;;11.82;63.21;100779.34;5103238;28;8831;-58
2023/05/31 01:04:15;;;;;;;;;9.00;9.00;;;;;11.80;62.88;100786.56;5117342;28;8870;-58
2023/05/31 01:06:43;;;;;;;;;9.75;7.00;;;;;11.77;62.72;100787.66;5117398;28;8934;-59
2023/05/31 01:09:11;;;;;;;;;6.00;6.00;;;;;11.74;63.22;100785.19;5117195;28;8819;-59
2023/05/31 01:11:40;;;;;;;;;8.50;8.00;;;;;11.73;63.18;100790.63;5118125;28;8831;-59
2023/05/31 01:14:08;;;;;;;;;7.50;7.00;;;;;11.69;62.77;100776.66;5118106;28;8843;-58
2023/05/31 01:16:35;;;;;;;;;7.00;6.00;;;;;11.67;62.96;100778.59;5118286;28;8846;-60
2023/05/31 01:19:05;;;;;;;;;9.00;9.00;;;;;11.64;63.38;100769.94;5118362;28;8804;-60
2023/05/31 01:21:33;;;;;;;;;9.75;7.50;;;;;11.63;63.01;100773.56;5117884;28;8958;-60
2023/05/31 01:24:01;;;;;;;;;7.25;6.75;;;;;11.61;63.03;100776.34;5117298;28;8816;-59
2023/05/31 01:26:28;;;;;;;;;9.25;9.00;;;;;11.60;63.28;100779.97;5118637;28;8858;-59
2023/05/31 01:28:56;;;;;;;;;6.00;4.50;;;;;11.57;63.55;100774.84;5117187;28;8814;-58
2023/05/31 01:31:24;;;;;;;;;7.00;4.00;;;;;11.55;63.65;100781.25;5118529;28;8962;-59
2023/05/31 01:33:52;;;;;;;;;5.50;4.50;;;;;11.53;63.28;100776.00;5118042;28;8804;-61
2023/05/31 01:36:20;;;;;;;;;5.00;4.75;;;;;11.51;63.68;100780.59;5118303;28;8921;-59
2023/05/31 01:38:47;;;;;;;;;8.00;7.50;;;;;11.50;63.77;100773.56;5117983;28;8928;-59
2023/05/31 01:41:15;;;;;;;;;6.50;6.25;;;;;11.49;63.51;100774.53;5101189;28;8808;-59
2023/05/31 01:43:43;;;;;;;;;7.00;7.00;;;;;11.49;63.37;100779.84;5117287;28;8930;-60
2023/05/31 01:46:10;;;;;;;;;7.50;7.00;;;;;11.47;63.20;100781.78;5117616;28;8979;-59
2023/05/31 01:48:38;;;;;;;;;8.75;8.00;;;;;11.43;63.60;100780.28;5116535;28;8824;-59
2023/05/31 01:51:06;;;;;;;;;3.50;3.00;;;;;11.39;63.43;100777.94;5117113;28;8819;-59
2023/05/31 01:53:34;;;;;;;;;6.75;6.00;;;;;11.35;63.63;100774.63;5118530;28;8810;-59
2023/05/31 01:56:02;;;;;;;;;6.00;5.50;;;;;11.30;63.67;100776.75;5118466;28;8804;-59
2023/05/31 01:58:30;;;;;;;;;9.50;8.00;;;;;11.28;64.16;100776.00;5117946;28;8832;-59
2023/05/31 02:00:57;;;;;;;;;6.75;6.75;;;;;11.22;63.86;100781.75;5117777;28;9500;-59
2023/05/31 02:03:25;;;;;;;;;9.00;8.00;;;;;11.20;64.15;100778.34;5117165;28;8820;-59
2023/05/31 02:05:53;;;;;;;;;8.50;7.00;;;;;11.24;64.38;100768.34;5117249;28;8840;-59
2023/05/31 02:08:20;;;;;;;;;10.00;9.00;;;;;11.33;64.29;100773.03;5117126;28;8806;-59
2023/05/31 02:10:48;;;;;;;;;6.25;6.00;;;;;11.36;64.26;100768.34;5117040;28;8837;-59
2023/05/31 02:13:16;;;;;;;;;7.25;6.00;;;;;11.35;63.88;100768.44;5116432;28;8821;-59
2023/05/31 02:15:44;;;;;;;;;10.00;9.00;;;;;11.33;64.01;100773.03;5117131;28;8826;-59
2023/05/31 02:18:12;;;;;;;;;10.25;9.75;;;;;11.29;63.85;100766.22;5118036;28;8924;-58
2023/05/31 02:20:40;;;;;;;;;7.00;6.25;;;;;11.23;63.97;100775.47;5117006;28;8828;-62
2023/05/31 02:23:07;;;;;;;;;6.00;6.00;;;;;11.19;64.26;100779.31;5117681;28;8833;-59
2023/05/31 02:25:35;;;;;;;;;10.00;9.00;;;;;11.17;64.65;100775.91;5118092;28;8813;-59
2023/05/31 02:28:03;;;;;;;;;4.50;4.25;;;;;11.15;64.05;100784.97;5117451;28;8821;-59
2023/05/31 02:30:30;;;;;;;;;8.00;7.25;;;;;11.10;64.28;100774.63;5117432;28;9475;-60
2023/05/31 02:33:08;;;;;;;;;4.00;4.00;;;;;11.10;64.76;100771.97;5117757;28;8826;-59
2023/05/31 02:35:35;;;;;;;;;11.75;9.00;;;;;11.07;64.42;100784.63;5116897;28;8958;-60
2023/05/31 02:38:03;;;;;;;;;6.50;6.50;;;;;11.04;64.48;100779.50;5117267;28;8820;-58
2023/05/31 02:40:31;;;;;;;;;3.75;3.75;;;;;11.02;64.77;100776.97;5116906;28;8823;-59
2023/05/31 02:42:59;;;;;;;;;7.50;7.50;;;;;11.00;64.74;100781.53;5117564;28;8958;-59
2023/05/31 02:45:27;;;;;;;;;8.25;8.00;;;;;11.02;64.63;100779.63;5117423;28;8847;-59
2023/05/31 02:47:54;;;;;;;;;6.00;6.00;;;;;11.03;64.50;100789.31;5116859;28;8824;-59
2023/05/31 02:50:22;;;;;;;;;5.00;5.00;;;;;11.04;64.38;100780.38;5116408;28;8833;-59
2023/05/31 02:52:50;;;;;;;;;8.50;6.75;;;;;11.09;64.79;100780.88;5117041;28;8835;-59
2023/05/31 02:55:18;;;;;;;;;9.00;6.75;;;;;11.17;64.11;100788.38;5117280;28;8808;-61
2023/05/31 02:57:46;;;;;;;;;12.00;12.00;;;;;11.23;64.92;100782.63;5116724;28;8808;-59
2023/05/31 03:00:14;;;;;;;;;11.25;9.00;;;;;11.28;64.46;100781.34;5116796;28;8842;-59
2023/05/31 03:02:41;;;;;;;;;8.00;8.00;;;;;11.36;64.44;100772.84;5116391;28;8958;-59
2023/05/31 03:05:10;;;;;;;;;6.75;6.25;;;;;11.42;64.54;100778.59;5116481;28;8859;-59
2023/05/31 03:07:38;;;;;;;;;6.25;4.00;;;;;11.50;64.59;100776.22;5116647;28;9662;-59
2023/05/31 03:10:05;;;;;;;;;7.50;7.50;;;;;11.54;64.67;100774.19;5116158;28;8824;-60
2023/05/31 03:12:33;;;;;;;;;7.50;6.50;;;;;11.55;64.64;100782.09;5116964;28;8954;-61
2023/05/31 03:15:00;;;;;;;;;7.75;7.75;;;;;11.56;64.69;100774.94;5115957;28;8855;-60
2023/05/31 03:17:28;;;;;;;;;9.00;8.00;;;;;11.55;64.42;100766.09;5116813;28;8838;-61
2023/05/31 03:19:56;;;;;;;;;7.00;5.00;;;;;11.51;64.62;100761.94;5116172;28;8901;-60
2023/05/31 03:22:25;;;;;;;;;6.00;3.75;;;;;11.52;64.71;100776.13;5115718;28;8934;-59
2023/05/31 03:24:52;;;;;;;;;7.75;6.75;;;;;11.49;64.80;100774.53;5115345;28;8824;-61
2023/05/31 03:27:20;;;;;;;;;9.00;7.00;;;;;11.42;64.63;100777.72;5116051;28;8824;-60
2023/05/31 03:29:48;;;;;;;;;7.00;7.00;;;;;11.34;64.81;100774.72;5115588;28;8819;-59
2023/05/31 03:32:15;;;;;;;;;6.00;5.00;;;;;11.24;65.44;100769.16;5115689;28;8831;-59
2023/05/31 03:34:43;;;;;;;;;9.00;7.00;;;;;11.15;65.57;100769.81;5116583;28;8856;-61
2023/05/31 03:37:11;;;;;;;;;11.00;10.00;;;;;11.08;65.68;100767.69;5115745;28;8851;-59
2023/05/31 03:39:38;;;;;;;;;8.50;8.00;;;;;11.00;65.21;100773.53;5115594;28;9601;-59
2023/05/31 03:42:06;;;;;;;;;6.25;6.25;;;;;10.97;65.90;100772.88;5115461;28;8931;-60
2023/05/31 03:44:34;;;;;;;;;6.25;5.50;;;;;10.92;65.70;100762.53;5115600;28;8927;-62
2023/05/31 03:47:02;;;;;;;;;3.00;3.00;;;;;10.91;65.72;100768.81;5115598;28;8935;-62
2023/05/31 03:49:30;;;;;;;;;9.75;9.00;;;;;10.94;65.35;100768.59;5115601;28;9616;-61
2023/05/31 03:51:57;;;;;;;;;10.00;9.00;;;;;11.00;66.02;100767.34;5115829;28;8796;-62
2023/05/31 03:54:25;;;;;;;;;7.50;6.75;;;;;11.00;65.18;100765.53;5116219;28;8920;-61
2023/05/31 03:56:53;;;;;;;;;9.75;9.25;;;;;11.02;65.47;100768.97;5116097;28;9471;-61
2023/05/31 03:59:21;;;;;;;;;7.50;7.50;;;;;11.03;64.76;100768.00;5116085;28;8833;-60
2023/05/31 04:01:49;;;;;;;;;9.25;9.00;;;;;11.08;65.38;100763.19;5115992;28;8940;-60
2023/05/31 04:04:16;;;;;;;;;9.75;9.50;;;;;11.15;65.25;100753.81;5115911;28;8826;-61
2023/05/31 04:06:44;;;;;;;;;9.50;9.25;;;;;11.22;64.99;100759.59;5114791;28;8850;-60
2023/05/31 04:09:12;;;;;;;;;8.25;8.00;;;;;11.27;64.72;100760.97;5115511;28;8800;-60
2023/05/31 04:11:40;;;;;;;;;6.25;5.50;;;;;11.33;64.65;100760.56;5115951;28;8824;-61
2023/05/31 04:14:08;;;;;;;;;7.00;6.75;;;;;11.36;64.56;100760.34;5115195;28;9319;-61
2023/05/31 04:16:35;;;;;;;;;7.75;5.75;;;;;11.43;64.86;100758.94;5116042;28;9497;-59
2023/05/31 04:19:03;;;;;;;;;7.50;7.50;;;;;11.52;64.85;100752.97;5115769;28;8820;-59
2023/05/31 04:21:32;;;;;;;;;6.00;5.00;;;;;11.63;64.25;100761.09;5116011;28;8909;-62
2023/05/31 04:24:00;;;;;;;;;5.50;4.50;;;;;11.72;64.33;100760.44;5115223;28;9438;-61
2023/05/31 04:26:28;;;;;;;;;6.50;6.50;;;;;11.82;64.15;100750.81;5115758;28;8916;-59
2023/05/31 04:28:57;;;;;;;;;8.50;8.00;;;;;11.91;64.32;100758.16;5115923;28;8824;-60
2023/05/31 04:31:25;;;;;;;;;7.50;7.00;;;;;12.00;63.79;100757.50;5115951;28;8843;-61
2023/05/31 04:34:18;;;;;;;;;7.00;3.25;;;;;12.12;63.37;100759.28;5095456;28;8829;-59
2023/05/31 04:36:48;;;;;;;;;5.00;2.50;;;;;12.24;63.39;100758.38;5111049;28;8804;-60
2023/05/31 04:39:19;;;;;;;;;7.50;7.00;;;;;12.37;62.88;100759.16;5119458;28;8839;-59
2023/05/31 04:41:47;;;;;;;;;6.00;6.00;;;;;12.47;62.85;100760.22;5119360;28;8847;-60
2023/05/31 04:44:15;;;;;;;;;7.00;7.00;;;;;12.55;62.63;100755.97;5118965;28;8844;-59
2023/05/31 04:46:43;;;;;;;;;7.00;7.00;;;;;12.64;62.42;100749.13;5118183;28;8835;-60
2023/05/31 04:49:12;;;;;;;;;9.25;7.00;;;;;12.71;62.35;100759.25;5117715;28;8832;-59
2023/05/31 04:51:40;;;;;;;;;8.50;7.50;;;;;12.82;62.30;100751.25;5118467;28;8836;-61
2023/05/31 04:54:08;;;;;;;;;8.50;8.50;;;;;12.94;62.15;100754.81;5118602;28;8950;-62
2023/05/31 04:56:36;;;;;;;;;7.50;7.00;;;;;13.02;61.62;100757.78;5118746;28;8824;-61
2023/05/31 04:59:04;;;;;;;;;9.75;8.50;;;;;13.11;62.13;100752.59;5118623;28;8854;-60
2023/05/31 05:01:32;;;;;;;;;8.00;7.00;;;;;13.20;61.78;100757.22;5118133;28;8828;-59
2023/05/31 05:03:59;;;;;;;;;10.50;8.50;;;;;13.28;61.53;100757.47;5118241;28;9591;-59
2023/05/31 05:06:27;;;;;;;;;8.00;7.00;;;;;13.36;61.67;100755.06;5119459;28;8860;-61
2023/05/31 05:08:55;;;;;;;;;8.00;8.00;;;;;13.45;61.06;100759.69;5118274;28;8855;-60
2023/05/31 05:11:25;;;;;;;;;6.00;5.00;;;;;13.54;61.12;100760.78;5118238;28;8874;-61
2023/05/31 05:13:52;;;;;;;;;10.75;9.75;;;;;13.62;60.99;100769.06;5117765;28;8862;-60
2023/05/31 05:16:21;;;;;;;;;10.00;9.00;;;;;13.73;60.92;100761.88;5117690;28;8832;-60
2023/05/31 05:18:49;;;;;;;;;8.00;6.25;;;;;13.82;60.82;100771.84;5118271;28;8917;-61
2023/05/31 05:21:17;;;;;;;;;12.75;9.25;;;;;13.90;60.83;100763.22;5118351;28;8901;-61
2023/05/31 05:23:44;;;;;;;;;8.00;7.50;;;;;13.99;60.59;100766.03;5117735;28;8850;-60
2023/05/31 05:26:12;;;;;;;;;6.50;6.00;;;;;14.10;60.57;100757.97;5117474;28;8823;-61
2023/05/31 05:28:40;;;;;;;;;7.50;7.00;;;;;14.19;60.74;100757.25;5117663;28;9612;-61
2023/05/31 05:31:08;;;;;;;;;7.50;7.50;;;;;14.27;60.44;100754.78;5117288;28;8941;-60
2023/05/31 05:33:36;;;;;;;;;10.50;9.50;;;;;14.38;60.56;100759.28;5117079;28;8866;-60
2023/05/31 05:36:03;;;;;;;;;7.25;6.75;;;;;14.49;60.47;100757.41;5116536;28;8924;-60
2023/05/31 05:38:31;;;;;;;;;9.75;9.00;;;;;14.63;59.54;100761.66;5117042;28;8831;-60
2023/05/31 05:40:59;;;;;;;;;10.00;7.00;;;;;14.72;59.91;100759.03;5116851;28;8828;-59
2023/05/31 05:43:28;;;;;;;;;9.00;9.00;;;;;14.82;59.97;100751.06;5117159;28;8890;-61
2023/05/31 05:45:57;;;;;;;;;11.00;9.00;;;;;14.93;59.23;100761.72;5116929;28;8844;-60
2023/05/31 05:48:24;;;;;;;;;7.00;7.00;;;;;15.06;58.89;100759.72;5115188;28;8832;-60
2023/05/31 05:50:52;;;;;;;;;7.00;6.75;;;;;15.17;59.46;100760.50;5116363;28;8836;-61
2023/05/31 05:53:20;;;;;;;;;4.75;0.00;;;;;15.24;58.87;100756.31;5116136;28;8842;-61
2023/05/31 05:55:49;;;;;;;;;7.00;6.50;;;;;15.33;58.81;100765.44;5116212;28;8931;-60
2023/05/31 05:58:18;;;;;;;;;7.00;5.50;;;;;15.40;59.62;100761.25;5116538;28;8856;-61
2023/05/31 06:00:46;;;;;;;;;11.50;10.00;;;;;15.50;59.18;100759.47;5115560;28;8939;-61
2023/05/31 06:03:13;;;;;;;;;7.50;6.75;;;;;15.61;59.33;100767.47;5115702;28;8852;-60
2023/05/31 06:05:41;;;;;;;;;9.50;8.50;;;;;15.70;59.34;100767.47;5115375;28;8933;-60
2023/05/31 06:08:09;;;;;;;;;6.25;4.00;;;;;15.82;58.25;100768.25;5115295;28;8828;-60
2023/05/31 06:10:37;;;;;;;;;7.00;7.00;;;;;15.96;58.97;100762.50;5114764;28;8950;-61
2023/05/31 06:13:05;;;;;;;;;8.00;7.50;;;;;16.05;58.58;100764.38;5115109;28;8835;-61
2023/05/31 06:15:32;;;;;;;;;8.00;7.00;;;;;16.17;58.10;100763.28;5115815;28;8846;-61
2023/05/31 06:18:00;;;;;;;;;7.50;7.00;;;;;16.29;57.88;100763.88;5115791;28;8916;-61
2023/05/31 06:20:28;;;;;;;;;9.00;9.00;;;;;16.40;57.83;100769.16;5116313;28;8885;-61
2023/05/31 06:22:57;;;;;;;;;9.25;8.25;;;;;16.49;58.25;100762.94;5116439;28;8962;-61
2023/05/31 06:25:24;;;;;;;;;11.50;10.00;;;;;16.63;57.64;100764.41;5116241;28;8969;-61
2023/05/31 06:27:52;;;;;;;;;9.50;7.00;;;;;16.72;57.50;100763.56;5115986;28;8840;-61
2023/05/31 06:30:21;;;;;;;;;4.50;4.50;;;;;16.79;57.69;100770.06;5115252;28;8970;-61
2023/05/31 06:32:49;;;;;;;;;7.50;7.00;;;;;16.84;57.58;100775.84;5114686;28;8973;-61
2023/05/31 06:35:17;;;;;;;;;7.75;7.75;;;;;16.89;57.67;100766.38;5114929;28;8852;-61
2023/05/31 06:37:46;;;;;;;;;7.75;7.50;;;;;16.99;57.64;100772.63;5114408;28;8851;-61
2023/05/31 06:40:14;;;;;;;;;10.00;8.00;;;;;17.05;57.96;100772.03;5114034;28;8897;-61
2023/05/31 06:42:42;;;;;;;;;10.00;9.00;;;;;17.17;57.33;100768.19;5113793;28;8828;-61
2023/05/31 06:45:09;;;;;;;;;10.00;9.00;;;;;17.29;57.38;100766.19;5114734;28;8832;-60
2023/05/31 06:47:37;;;;;;;;;9.50;7.25;;;;;17.42;57.00;100775.72;5114495;28;8898;-61
2023/05/31 06:50:05;;;;;;;;;7.00;7.00;;;;;17.51;56.72;100774.84;5114706;28;8832;-61
2023/05/31 06:52:33;;;;;;;;;12.75;12.00;;;;;17.58;57.16;100761.63;5115116;28;8840;-60
2023/05/31 06:55:01;;;;;;;;;11.25;8.50;;;;;17.67;56.99;100766.97;5115344;28;8866;-60
2023/05/31 06:57:29;;;;;;;;;8.50;7.00;;;;;17.76;56.51;100760.72;5115423;28;8874;-61
2023/05/31 06:59:57;;;;;;;;;8.50;7.25;;;;;17.84;56.40;100760.81;5115081;28;8966;-61
2023/05/31 07:02:26;;;;;;;;;8.25;5.75;;;;;17.93;56.29;100756.41;5114596;28;8831;-60
2023/05/31 07:04:53;;;;;;;;;7.75;7.00;;;;;18.03;56.66;100755.34;5114369;28;8886;-61
2023/05/31 07:07:21;;;;;;;;;11.00;9.00;;;;;18.11;56.43;100749.19;5113960;28;8978;-60
2023/05/31 07:09:50;;;;;;;;;7.00;7.00;;;;;18.18;56.00;100755.69;5114051;28;8864;-60
2023/05/31 07:12:18;;;;;;;;;8.20;6.60;;;;;18.26;55.93;100748.56;5113531;28;8839;-60
2023/05/31 07:14:46;;;;;;;;;6.20;5.60;;;;;18.36;56.19;100752.06;5113268;28;9839;-61
2023/05/31 07:17:14;;;;;;;;;8.40;7.40;;;;;18.43;56.17;100747.75;5113580;28;8889;-60
2023/05/31 07:19:42;;;;;;;;;9.20;9.00;;;;;18.51;56.05;100741.63;5112612;28;8983;-60
2023/05/31 07:22:09;;;;;;;;;9.80;8.60;;;;;18.60;55.45;100738.00;5112462;28;8962;-61
2023/05/31 07:24:38;;;;;;;;;11.80;10.00;;;;;18.66;56.00;100740.91;5111887;28;8930;-60
2023/05/31 07:27:07;;;;;;;;;12.00;9.20;;;;;18.74;55.39;100742.84;5111835;28;8972;-60
2023/05/31 07:29:35;;;;;;;;;6.80;5.40;;;;;18.84;55.32;100744.47;5111640;28;8958;-60
2023/05/31 07:32:02;;;;;;;;;7.00;7.00;;;;;18.92;55.21;100743.69;5112443;28;8847;-60
2023/05/31 07:34:30;;;;;;;;;8.80;8.80;;;;;18.99;54.94;100742.94;5113351;28;8987;-61
2023/05/31 07:36:59;;;;;;;;;10.40;9.40;;;;;19.08;54.74;100736.59;5112469;28;8862;-61
2023/05/31 07:39:26;;;;;;;;;9.00;8.00;;;;;19.18;54.47;100742.72;5112408;28;9009;-60
2023/05/31 07:41:54;;;;;;;;;7.80;7.80;;;;;19.25;54.57;100735.72;5113171;28;8856;-61
2023/05/31 07:44:23;;;;;;;;;12.20;11.00;;;;;19.33;54.75;100735.78;5113547;28;8828;-60
2023/05/31 07:46:52;;;;;;;;;8.80;8.40;;;;;19.41;54.86;100743.94;5113578;28;9567;-61
2023/05/31 07:49:20;;;;;;;;;7.60;7.20;;;;;19.46;55.00;100740.75;5113434;28;8867;-61
2023/05/31 07:51:49;;;;;;;;;8.00;8.00;;;;;19.50;54.58;100734.88;5114094;28;8836;-62
2023/05/31 07:54:16;;;;;;;;;10.00;9.80;;;;;19.57;54.44;100737.81;5114871;28;8935;-62
2023/05/31 07:56:44;;;;;;;;;7.20;7.20;;;;;19.65;54.44;100733.28;5114690;28;8836;-60
2023/05/31 07:59:12;;;;;;;;;4.60;4.60;;;;;19.69;54.04;100731.97;5114744;28;9626;-62
2023/05/31 08:01:40;;;;;;;;;11.20;8.80;;;;;19.76;54.11;100741.13;5115014;28;8855;-61
2023/05/31 08:04:08;;;;;;;;;8.00;8.00;;;;;19.81;54.38;100735.22;5113684;28;8913;-61
2023/05/31 08:06:37;;;;;;;;;8.00;8.00;;;;;19.84;54.38;100729.50;5114161;28;8832;-61
2023/05/31 08:09:06;;;;;;;;;7.00;7.00;;;;;19.90;54.27;100735.13;5114113;28;8894;-62
2023/05/31 08:11:35;;;;;;;;;5.80;5.40;;;;;19.94;54.32;100730.22;5116271;28;9525;-62
2023/05/31 08:14:03;;;;;;;;;7.60;7.00;;;;;20.02;53.83;100722.97;5117982;28;8828;-61
2023/05/31 08:16:31;;;;;;;;;9.60;8.20;;;;;20.12;54.00;100726.44;5118354;28;8949;-61
2023/05/31 08:18:59;;;;;;;;;9.20;8.40;;;;;20.22;53.23;100720.88;5117933;28;8819;-61
2023/05/31 08:21:27;;;;;;;;;8.40;8.00;;;;;20.32;53.24;100724.31;5118274;28;8839;-60
2023/05/31 08:23:56;;;;;;;;;7.40;7.40;;;;;20.43;53.34;100716.72;5117968;28;8820;-61
2023/05/31 08:26:25;;;;;;;;;9.40;9.40;;;;;20.53;53.06;100717.41;5117921;28;8855;-61
2023/05/31 08:28:53;;;;;;;;;7.00;7.00;;;;;20.61;52.74;100714.72;5117804;28;8839;-61
2023/05/31 08:31:21;;;;;;;;;10.40;9.40;;;;;20.69;52.74;100719.31;5117812;28;9841;-61
2023/05/31 08:33:49;;;;;;;;;5.80;5.00;;;;;20.81;52.68;100716.09;5118066;28;8848;-61
2023/05/31 08:36:17;;;;;;;;;4.00;4.00;;;;;20.93;52.33;100720.19;5118520;28;8824;-61
2023/05/31 08:38:45;;;;;;;;;8.00;6.20;;;;;21.04;52.19;100717.16;5117542;28;8827;-60
2023/05/31 08:41:13;;;;;;;;;8.60;7.00;;;;;21.12;52.54;100722.56;5117343;28;8844;-61
2023/05/31 08:43:41;;;;;;;;;7.40;6.40;;;;;21.19;52.28;100721.72;5117839;28;8862;-61
2023/05/31 08:46:09;;;;;;;;;10.60;9.20;;;;;21.28;52.11;100718.00;5117730;28;8901;-61
2023/05/31 08:48:37;;;;;;;;;12.20;11.00;;;;;21.40;51.75;100715.78;5117736;28;8847;-61
2023/05/31 08:51:05;;;;;;;;;10.60;8.00;;;;;21.51;51.61;100715.41;5118183;28;8850;-61
2023/05/31 08:53:33;;;;;;;;;11.00;11.00;;;;;21.58;51.99;100719.97;5117382;28;8836;-62
2023/05/31 08:56:02;;;;;;;;;11.00;11.00;;;;;21.67;51.60;100704.53;5117567;28;8828;-61
2023/05/31 08:58:30;;;;;;;;;8.40;8.40;;;;;21.78;51.69;100709.59;5117529;28;8827;-60
2023/05/31 09:00:57;;;;;;;;;8.80;7.80;;;;;21.84;51.35;100706.16;5117158;28;8854;-61
2023/05/31 09:03:26;;;;;;;;;9.00;8.00;;;;;21.89;51.43;100703.78;5117594;28;8831;-61
2023/05/31 09:05:54;;;;;;;;;5.60;5.60;;;;;21.93;51.06;100694.28;5117319;28;8890;-61
2023/05/31 09:08:22;;;;;;;;;8.40;8.00;;;;;22.05;50.84;100701.00;5117574;28;8850;-61
2023/05/31 09:10:49;;;;;;;;;7.20;6.40;;;;;22.16;50.80;100700.63;5117303;28;8954;-61
2023/05/31 09:13:17;;;;;;;;;7.00;5.60;;;;;22.28;50.75;100699.19;5117278;28;8843;-61
2023/05/31 09:15:46;;;;;;;;;9.40;6.80;;;;;22.39;50.95;100693.38;5117464;28;8851;-61
2023/05/31 09:18:14;;;;;;;;;5.60;5.00;;;;;22.48;50.45;100692.31;5117477;28;8847;-63
2023/05/31 09:20:42;;;;;;;;;10.00;10.00;;;;;22.55;50.24;100683.25;5116491;28;8839;-62
2023/05/31 09:23:12;;;;;;;;;8.00;6.80;;;;;22.68;49.94;100701.69;5116340;28;8942;-62
2023/05/31 09:25:40;;;;;;;;;8.80;8.20;;;;;22.79;50.24;100691.25;5116607;28;8844;-62
2023/05/31 09:28:08;;;;;;;;;9.60;8.40;;;;;22.90;49.87;100698.09;5116570;28;8847;-61
2023/05/31 09:30:36;;;;;;;;;12.00;9.80;;;;;23.04;49.78;100686.44;5116616;28;8832;-61
2023/05/31 09:33:04;;;;;;;;;9.00;8.00;;;;;23.17;49.60;100689.41;5116339;28;8839;-61
2023/05/31 09:35:32;;;;;;;;;9.60;9.00;;;;;23.27;49.54;100676.38;5117230;28;8909;-63
2023/05/31 09:38:00;;;;;;;;;9.00;8.00;;;;;23.31;49.14;100678.53;5117003;28;9557;-62
2023/05/31 09:40:28;;;;;;;;;6.00;6.00;;;;;23.39;49.15;100677.63;5116832;28;8831;-61
2023/05/31 09:42:56;;;;;;;;;10.80;9.40;;;;;23.53;48.48;100672.19;5117176;28;8824;-62
2023/05/31 09:45:24;;;;;;;;;10.80;10.00;;;;;23.65;48.54;100672.56;5115899;28;8990;-61
2023/05/31 09:47:52;;;;;;;;;4.80;2.40;;;;;23.79;48.95;100669.84;5115967;28;8855;-61
2023/05/31 09:50:20;;;;;;;;;9.00;7.80;;;;;23.96;48.07;100659.66;5116246;28;8827;-62
2023/05/31 09:52:48;;;;;;;;;8.00;6.60;;;;;24.19;47.37;100655.72;5115547;28;8836;-61
2023/05/31 09:55:15;;;;;;;;;4.60;3.00;;;;;24.45;47.00;100657.91;5114579;28;8824;-61
2023/05/31 09:57:44;;;;;;;;;5.20;5.20;;;;;24.72;46.55;100660.72;5114841;28;8944;-61
2023/05/31 10:00:18;;;;;;;;;9.60;8.60;;;;;25.01;45.97;100660.59;5114878;28;8957;-62
2023/05/31 10:02:46;;;;;;;;;9.40;9.00;;;;;25.34;45.66;100655.41;5115550;28;8827;-61
2023/05/31 10:05:14;;;;;;;;;8.20;6.80;;;;;25.59;44.99;100643.84;5115385;28;8851;-62
2023/05/31 10:07:42;;;;;;;;;7.20;5.80;;;;;25.87;44.70;100642.72;5114245;28;8832;-62
2023/05/31 10:10:10;;;;;;;;;5.80;5.80;;;;;26.19;44.96;100641.19;5114713;28;8819;-62
2023/05/31 10:12:38;;;;;;;;;8.00;7.60;;;;;26.57;44.07;100639.66;5114744;28;9552;-62
2023/05/31 10:15:06;;;;;;;;;7.80;6.60;;;;;26.91;43.27;100639.44;5106072;28;8937;-61
2023/05/31 10:17:34;;;;;;;;;8.20;7.00;;;;;27.29;43.35;100641.38;5114007;28;9541;-62
2023/05/31 10:20:04;;;;;;;;;4.40;4.00;;;;;27.64;42.26;100633.72;5114247;28;8819;-62
2023/05/31 10:22:32;;;;;;;;;6.80;5.60;;;;;27.99;42.23;100635.94;5114473;28;9863;-61
2023/05/31 10:25:00;;;;;;;;;6.00;4.00;;;;;28.32;41.34;100624.81;5113906;28;8820;-62
2023/05/31 10:27:29;;;;;;;;;5.80;5.20;;;;;28.61;41.64;100625.06;5113661;28;8925;-62
2023/05/31 10:29:57;;;;;;;;;3.20;3.20;;;;;28.83;41.17;100626.38;5114718;28;8924;-61
2023/05/31 10:32:25;;;;;;;;;6.80;4.80;;;;;29.04;40.90;100628.75;5114804;28;8828;-62
2023/05/31 10:34:52;;;;;;;;;3.00;3.00;;;;;29.26;40.04;100629.22;5114601;28;8867;-62
2023/05/31 10:37:20;;;;;;;;;2.80;2.00;;;;;29.36;39.48;100624.03;5115354;28;8816;-61
2023/05/31 10:39:48;;;;;;;;;4.60;4.60;;;;;29.50;40.03;100617.34;5115633;28;8978;-62
2023/05/31 10:42:17;;;;;;;;;3.40;3.40;;;;;29.66;39.40;100612.09;5115545;28;8843;-62
2023/05/31 10:44:45;;;;;;;;;3.80;3.80;;;;;29.85;38.92;100611.03;5115091;28;8824;-62
2023/05/31 10:47:13;;;;;;;;;3.80;2.80;;;;;30.00;38.84;100603.22;5114940;28;8858;-63
2023/05/31 10:49:41;;;;;;;;;4.40;4.00;;;;;30.17;37.72;100607.03;5114840;28;8847;-62
2023/05/31 10:52:09;;;;;;;;;3.80;3.80;;;;;30.31;37.70;100604.94;5114472;28;8827;-62
2023/05/31 10:54:37;;;;;;;;;3.80;2.60;;;;;30.45;37.75;100599.03;5114152;28;8848;-62
2023/05/31 10:57:05;;;;;;;;;3.20;3.20;;;;;30.51;37.08;100597.25;5114429;28;8835;-63
2023/05/31 10:59:33;;;;;;;;;3.00;3.00;;;;;30.57;36.54;100597.13;5114654;28;8855;-63
2023/05/31 11:02:00;;;;;;;;;3.00;3.00;;;;;30.64;36.43;100594.34;5114477;28;8831;-62
2023/05/31 11:04:28;;;;;;;;;4.40;4.00;;;;;30.84;35.62;100584.66;5113449;28;8851;-62
2023/05/31 11:06:56;;;;;;;;;4.00;3.80;;;;;31.06;35.67;100588.53;5113484;28;8839;-62
2023/05/31 11:09:25;;;;;;;;;3.60;3.00;;;;;31.22;35.38;100587.84;5112997;28;8852;-62
2023/05/31 11:11:53;;;;;;;;;2.20;2.20;;;;;31.47;34.96;100589.25;5112335;28;8835;-63
2023/05/31 11:14:25;;;;;;;;;3.20;3.20;;;;;31.73;34.56;100585.16;5112271;28;8932;-62
2023/05/31 11:16:56;;;;;;;;;3.00;2.40;;;;;31.90;34.30;100586.91;5111932;28;8847;-62
2023/05/31 11:19:24;;;;;;;;;2.60;2.60;;;;;31.98;34.45;100580.16;5111432;28;8853;-62
2023/05/31 11:21:51;;;;;;;;;3.00;3.00;;;;;32.04;34.38;100570.91;5111756;28;8831;-62
2023/05/31 11:24:19;;;;;;;;;3.60;3.60;;;;;32.13;33.65;100570.28;5112949;28;8942;-62
2023/05/31 11:26:47;;;;;;;;;3.80;3.80;;;;;32.22;33.00;100571.59;5113274;28;8921;-63
2023/05/31 11:29:16;;;;;;;;;3.60;3.00;;;;;32.28;33.24;100575.28;5112837;28;8912;-62
2023/05/31 11:31:44;;;;;;;;;3.60;3.00;;;;;32.46;33.40;100575.91;5113077;28;8944;-61
2023/05/31 11:34:12;;;;;;;;;4.00;3.60;;;;;32.60;33.05;100570.88;5113297;28;8872;-61
2023/05/31 11:36:40;;;;;;;;;4.00;4.00;;;;;32.75;32.80;100569.28;5112940;28;8832;-62